Time,TemperatureF,DewpointF,PressureIn,WindDirection,WindDirectionDegrees,WindSpeedMPH,WindSpeedGustMPH,Humidity,HourlyPrecipIn,Conditions,Clouds,dailyrainin,SoftwareType,DateUTC
2013-01-09 00:22:00,35.0,24.0,-100.00,SSW,195,1.0,6.0,64,0.00,,,-99.99,,2013-01-09 06:22:00,
2013-01-09 00:32:00,35.0,24.0,-100.00,SSW,195,1.0,6.0,64,0.00,,,-99.99,,2013-01-09 06:32:00,
2013-01-09 00:42:00,35.0,24.0,-100.00,SSW,195,1.0,6.0,64,0.00,,,-99.99,,2013-01-09 06:42:00,
2013-01-09 00:52:00,35.0,24.0,-100.00,SSW,195,1.0,6.0,64,0.00,,,-99.99,,2013-01-09 06:52:00,
2013-01-09 01:12:00,35.0,23.0,-100.00,West,275,9.0,17.0,61,0.00,,,-99.99,,2013-01-09 07:12:00,
2013-01-09 01:22:00,35.0,23.0,-100.00,West,275,9.0,17.0,61,0.00,,,-99.99,,2013-01-09 07:22:00,
2013-01-09 01:32:00,35.0,23.0,-100.00,West,275,9.0,17.0,61,0.00,,,-99.99,,2013-01-09 07:32:00,
2013-01-09 01:42:00,35.0,23.0,-100.00,West,275,9.0,17.0,61,0.00,,,-99.99,,2013-01-09 07:42:00,
2013-01-09 01:52:00,35.0,23.0,-100.00,West,275,9.0,17.0,61,0.00,,,-99.99,,2013-01-09 07:52:00,
2013-01-09 02:12:00,34.0,22.0,-100.00,West,280,6.0,16.0,60,0.00,,,-99.99,,2013-01-09 08:12:00,
2013-01-09 02:22:00,34.0,22.0,-100.00,West,280,6.0,16.0,60,0.00,,,-99.99,,2013-01-09 08:22:00,
2013-01-09 02:32:00,34.0,22.0,-100.00,West,280,6.0,16.0,60,0.00,,,-99.99,,2013-01-09 08:32:00,
2013-01-09 02:42:00,34.0,22.0,-100.00,West,280,6.0,16.0,60,0.00,,,-99.99,,2013-01-09 08:42:00,
2013-01-09 02:52:00,34.0,22.0,-100.00,West,280,6.0,16.0,60,0.00,,,-99.99,,2013-01-09 08:52:00,
2013-01-09 02:53:00,33.0,22.0,-100.00,WNW,285,6.0,17.0,64,0.00,,,-99.99,,2013-01-09 08:53:00,
2013-01-09 03:12:00,33.0,22.0,-100.00,WNW,285,6.0,17.0,64,0.00,,,-99.99,,2013-01-09 09:12:00,
2013-01-09 03:22:00,33.0,22.0,-100.00,WNW,285,6.0,17.0,64,0.00,,,-99.99,,2013-01-09 09:22:00,
2013-01-09 03:32:00,33.0,22.0,-100.00,WNW,285,6.0,17.0,64,0.00,,,-99.99,,2013-01-09 09:32:00,
2013-01-09 03:42:00,33.0,22.0,-100.00,WNW,285,6.0,17.0,64,0.00,,,-99.99,,2013-01-09 09:42:00,
2013-01-09 04:12:00,32.0,22.0,-100.00,West,275,4.0,17.0,65,0.00,,,-99.99,,2013-01-09 10:12:00,
2013-01-09 04:22:00,32.0,22.0,-100.00,West,275,4.0,17.0,65,0.00,,,-99.99,,2013-01-09 10:22:00,
2013-01-09 04:32:00,32.0,22.0,-100.00,West,275,4.0,17.0,65,0.00,,,-99.99,,2013-01-09 10:32:00,
2013-01-09 04:42:00,32.0,22.0,-100.00,West,275,4.0,17.0,65,0.00,,,-99.99,,2013-01-09 10:42:00,
2013-01-09 04:52:00,32.0,22.0,-100.00,West,275,4.0,17.0,65,0.00,,,-99.99,,2013-01-09 10:52:00,
2013-01-09 05:12:00,31.0,21.0,-100.00,West,275,6.0,14.0,68,0.00,,,-99.99,,2013-01-09 11:12:00,
2013-01-09 05:22:00,31.0,21.0,-100.00,West,275,6.0,14.0,68,0.00,,,-99.99,,2013-01-09 11:22:00,
2013-01-09 05:32:00,31.0,21.0,-100.00,West,275,6.0,14.0,68,0.00,,,-99.99,,2013-01-09 11:32:00,
2013-01-09 05:42:00,31.0,21.0,-100.00,West,275,6.0,14.0,68,0.00,,,-99.99,,2013-01-09 11:42:00,
2013-01-09 05:52:00,31.0,21.0,-100.00,West,275,6.0,14.0,68,0.00,,,-99.99,,2013-01-09 11:52:00,
2013-01-09 06:12:00,29.0,21.0,-100.00,WSW,240,4.0,11.0,72,0.00,,,-99.99,,2013-01-09 12:12:00,
2013-01-09 06:23:00,29.0,21.0,-100.00,WSW,240,4.0,11.0,72,0.00,,,-99.99,,2013-01-09 12:23:00,
2013-01-09 06:33:00,29.0,21.0,-100.00,WSW,240,4.0,11.0,72,0.00,,,-99.99,,2013-01-09 12:33:00,
2013-01-09 06:43:00,29.0,21.0,-100.00,WSW,240,4.0,11.0,72,0.00,,,-99.99,,2013-01-09 12:43:00,
2013-01-09 06:52:00,29.0,21.0,-100.00,WSW,240,4.0,11.0,72,0.00,,,-99.99,,2013-01-09 12:52:00,
2013-01-09 07:12:00,29.0,22.0,-100.00,West,265,3.0,16.0,73,0.00,,,-99.99,,2013-01-09 13:12:00,
2013-01-09 07:23:00,29.0,22.0,-100.00,West,265,3.0,16.0,73,0.00,,,-99.99,,2013-01-09 13:23:00,
2013-01-09 07:33:00,29.0,22.0,-100.00,West,265,3.0,16.0,73,0.00,,,-99.99,,2013-01-09 13:33:00,
2013-01-09 07:43:00,29.0,22.0,-100.00,West,265,3.0,16.0,73,0.00,,,-99.99,,2013-01-09 13:43:00,
2013-01-09 07:52:00,29.0,22.0,-100.00,West,265,3.0,16.0,73,0.00,,,-99.99,,2013-01-09 13:52:00,
2013-01-09 07:53:00,31.0,21.0,-100.00,West,265,4.0,16.0,66,0.00,,,-99.99,,2013-01-09 13:53:00,
2013-01-09 08:12:00,31.0,21.0,-100.00,West,265,4.0,16.0,66,0.00,,,-99.99,,2013-01-09 14:12:00,
2013-01-09 08:22:00,31.0,21.0,-100.00,West,265,4.0,16.0,66,0.00,,,-99.99,,2013-01-09 14:22:00,
2013-01-09 08:33:00,31.0,21.0,-100.00,West,265,4.0,16.0,66,0.00,,,-99.99,,2013-01-09 14:33:00,
2013-01-09 08:43:00,31.0,21.0,-100.00,West,265,4.0,16.0,66,0.00,,,-99.99,,2013-01-09 14:43:00,
2013-01-09 08:53:00,32.0,19.0,-100.00,WSW,255,6.0,17.0,57,0.00,,,-99.99,,2013-01-09 14:53:00,
2013-01-09 09:12:00,32.0,19.0,-100.00,WSW,255,6.0,17.0,57,0.00,,,-99.99,,2013-01-09 15:12:00,
2013-01-09 09:23:00,32.0,19.0,-100.00,WSW,255,6.0,17.0,57,0.00,,,-99.99,,2013-01-09 15:23:00,
2013-01-09 09:33:00,32.0,19.0,-100.00,WSW,255,6.0,17.0,57,0.00,,,-99.99,,2013-01-09 15:33:00,
2013-01-09 09:42:00,32.0,19.0,-100.00,WSW,255,6.0,17.0,57,0.00,,,-99.99,,2013-01-09 15:42:00,
2013-01-09 10:12:00,35.0,17.0,-100.00,West,275,11.0,26.0,49,0.00,,,-99.99,,2013-01-09 16:12:00,
2013-01-09 10:23:00,35.0,17.0,-100.00,West,275,11.0,26.0,49,0.00,,,-99.99,,2013-01-09 16:23:00,
2013-01-09 10:33:00,35.0,17.0,-100.00,West,275,11.0,26.0,49,0.00,,,-99.99,,2013-01-09 16:33:00,
2013-01-09 10:43:00,35.0,17.0,-100.00,West,275,11.0,26.0,49,0.00,,,-99.99,,2013-01-09 16:43:00,
2013-01-09 10:52:00,35.0,17.0,-100.00,West,275,11.0,26.0,49,0.00,,,-99.99,,2013-01-09 16:52:00,
2013-01-09 11:12:00,35.0,16.0,-100.00,WNW,300,6.0,22.0,45,0.00,,,-99.99,,2013-01-09 17:12:00,
2013-01-09 11:23:00,35.0,16.0,-100.00,WNW,300,6.0,22.0,45,0.00,,,-99.99,,2013-01-09 17:23:00,
2013-01-09 11:33:00,35.0,16.0,-100.00,WNW,300,6.0,22.0,45,0.00,,,-99.99,,2013-01-09 17:33:00,
2013-01-09 11:43:00,35.0,16.0,-100.00,WNW,300,6.0,22.0,45,0.00,,,-99.99,,2013-01-09 17:43:00,
2013-01-09 11:53:00,35.0,16.0,-100.00,WNW,300,6.0,22.0,45,0.00,,,-99.99,,2013-01-09 17:53:00,
2013-01-09 12:24:00,35.0,15.0,-100.00,WNW,290,7.0,19.0,44,0.00,,,-99.99,,2013-01-09 18:24:00,
2013-01-09 12:33:00,35.0,15.0,-100.00,WNW,290,7.0,19.0,44,0.00,,,-99.99,,2013-01-09 18:33:00,
2013-01-09 12:43:00,35.0,15.0,-100.00,WNW,290,7.0,19.0,44,0.00,,,-99.99,,2013-01-09 18:43:00,
2013-01-09 12:53:00,35.0,15.0,-100.00,WNW,290,7.0,19.0,44,0.00,,,-99.99,,2013-01-09 18:53:00,
2013-01-09 14:23:00,35.0,13.0,-100.00,NW,305,8.0,17.0,39,0.00,,,-99.99,,2013-01-09 20:23:00,
2013-01-09 14:33:00,35.0,13.0,-100.00,NW,305,8.0,17.0,39,0.00,,,-99.99,,2013-01-09 20:33:00,
2013-01-09 14:43:00,35.0,13.0,-100.00,NW,305,8.0,17.0,39,0.00,,,-99.99,,2013-01-09 20:43:00,
2013-01-09 14:52:00,35.0,13.0,-100.00,NW,305,8.0,17.0,39,0.00,,,-99.99,,2013-01-09 20:52:00,
2013-01-09 16:12:00,34.0,13.0,-100.00,WNW,290,6.0,11.0,41,0.00,,,-99.99,,2013-01-09 22:12:00,
2013-01-09 16:23:00,34.0,13.0,-100.00,WNW,285,7.0,16.0,41,0.00,,,-99.99,,2013-01-09 22:23:00,
2013-01-09 16:33:00,34.0,13.0,-100.00,WNW,285,7.0,16.0,41,0.00,,,-99.99,,2013-01-09 22:33:00,
2013-01-09 16:43:00,34.0,13.0,-100.00,WNW,285,7.0,16.0,41,0.00,,,-99.99,,2013-01-09 22:43:00,
2013-01-09 16:52:00,34.0,13.0,-100.00,WNW,285,7.0,16.0,41,0.00,,,-99.99,,2013-01-09 22:52:00,
2013-01-09 17:13:00,31.0,12.0,-100.00,West,260,5.0,14.0,45,0.00,,,-99.99,,2013-01-09 23:13:00,
2013-01-09 17:22:00,31.0,12.0,-100.00,West,260,5.0,14.0,45,0.00,,,-99.99,,2013-01-09 23:22:00,
2013-01-09 17:33:00,31.0,12.0,-100.00,West,260,5.0,14.0,45,0.00,,,-99.99,,2013-01-09 23:33:00,
2013-01-09 17:43:00,31.0,12.0,-100.00,West,260,5.0,14.0,45,0.00,,,-99.99,,2013-01-09 23:43:00,
2013-01-09 17:52:00,31.0,12.0,-100.00,West,260,5.0,14.0,45,0.00,,,-99.99,,2013-01-09 23:52:00,
2013-01-09 18:22:00,30.0,11.0,-100.00,WNW,300,3.0,10.0,45,0.00,,,-99.99,,2013-01-10 00:22:00,
2013-01-09 18:32:00,30.0,11.0,-100.00,WNW,300,3.0,10.0,45,0.00,,,-99.99,,2013-01-10 00:32:00,
2013-01-09 18:42:00,30.0,11.0,-100.00,WNW,300,3.0,10.0,45,0.00,,,-99.99,,2013-01-10 00:42:00,
2013-01-09 18:52:00,30.0,11.0,-100.00,WNW,300,3.0,10.0,45,0.00,,,-99.99,,2013-01-10 00:52:00,
2013-01-09 20:22:00,24.0,11.0,-100.00,WSW,245,0.0,1.0,59,0.00,,,-99.99,,2013-01-10 02:22:00,
2013-01-09 20:32:00,24.0,11.0,-100.00,WSW,245,0.0,1.0,59,0.00,,,-99.99,,2013-01-10 02:32:00,
2013-01-09 20:42:00,24.0,11.0,-100.00,WSW,245,0.0,1.0,59,0.00,,,-99.99,,2013-01-10 02:42:00,
2013-01-09 20:52:00,24.0,11.0,-100.00,WSW,245,0.0,1.0,59,0.00,,,-99.99,,2013-01-10 02:52:00,
2013-01-09 21:22:00,23.0,13.0,-100.00,SSE,165,1.0,1.0,64,0.00,,,-99.99,,2013-01-10 03:22:00,
2013-01-09 21:33:00,23.0,13.0,-100.00,SSE,165,1.0,1.0,64,0.00,,,-99.99,,2013-01-10 03:33:00,
2013-01-09 21:42:00,23.0,13.0,-100.00,SSE,165,1.0,1.0,64,0.00,,,-99.99,,2013-01-10 03:42:00,
2013-01-09 21:52:00,23.0,13.0,-100.00,SSE,165,1.0,1.0,64,0.00,,,-99.99,,2013-01-10 03:52:00,
2013-01-09 22:22:00,21.0,12.0,-100.00,SSW,200,0.0,1.0,68,0.00,,,-99.99,,2013-01-10 04:22:00,
2013-01-09 22:32:00,21.0,12.0,-100.00,SSW,200,0.0,1.0,68,0.00,,,-99.99,,2013-01-10 04:32:00,
2013-01-09 22:42:00,21.0,12.0,-100.00,SSW,200,0.0,1.0,68,0.00,,,-99.99,,2013-01-10 04:42:00,
2013-01-09 22:52:00,21.0,12.0,-100.00,SSW,200,0.0,1.0,68,0.00,,,-99.99,,2013-01-10 04:52:00,